Wetterdaten: Woche 14.06.10 - 20.06.10 (KW24)
Datum Zeit Temp. A. Feuchte A. Luftdruck Regen Wind Richtung Taupunkt Windchill Windben
14.06.2010 00:00 13,3 C 90 % 1011,6 hPa 0,0 l/m 0,0 km/h NO 11,7 C 13,3 C 0,0 km/h
14.06.2010 01:00 13,5 C 90 % 1011,1 hPa 0,0 l/m 0,0 km/h NO 11,9 C 13,5 C 0,0 km/h
14.06.2010 02:00 12,1 C 90 % 1011,1 hPa 0,0 l/m 0,0 km/h NO 10,5 C 12,1 C 0,0 km/h
14.06.2010 03:00 11,2 C 91 % 1010,8 hPa 0,0 l/m 0,0 km/h O-SO 9,8 C 11,2 C 0,0 km/h
14.06.2010 04:00 10,5 C 92 % 1011,1 hPa 0,0 l/m 0,0 km/h O 9,3 C 10,5 C 0,0 km/h
14.06.2010 05:00 10,4 C 93 % 1011,1 hPa 0,0 l/m 0,0 km/h O 9,3 C 10,4 C 0,0 km/h
14.06.2010 06:00 11,4 C 93 % 1011,3 hPa 0,0 l/m 0,0 km/h NO 10,3 C 11,4 C 0,0 km/h
14.06.2010 07:00 15,8 C 94 % 1011,7 hPa 0,0 l/m 0,0 km/h W 14,8 C 15,8 C 0,0 km/h
14.06.2010 08:00 23,3 C 64 % 1011,9 hPa 0,0 l/m 0,0 km/h NW 16,1 C 23,3 C 0,0 km/h
14.06.2010 09:00 23,3 C 61 % 1011,9 hPa 0,0 l/m 5,2 km/h W-SW 15,3 C 23,3 C 2,9 km/h
14.06.2010 10:00 26,0 C 52 % 1011,9 hPa 0,0 l/m 3,2 km/h NW 15,4 C 26,0 C 1,8 km/h
14.06.2010 11:00 26,3 C 50 % 1012,0 hPa 0,0 l/m 0,0 km/h N-NW 15,0 C 26,3 C 0,0 km/h
14.06.2010 12:00 27,0 C 48 % 1011,9 hPa 0,0 l/m 6,5 km/h W-NW 15,0 C 27,0 C 3,6 km/h
14.06.2010 13:00 27,6 C 44 % 1011,4 hPa 0,0 l/m 0,0 km/h W-SW 14,2 C 27,6 C 0,0 km/h
14.06.2010 14:00 25,4 C 46 % 1011,5 hPa 0,0 l/m 3,2 km/h W 12,9 C 25,4 C 1,8 km/h
14.06.2010 15:00 24,1 C 54 % 1012,0 hPa 0,0 l/m 0,0 km/h W 14,2 C 24,1 C 0,0 km/h
14.06.2010 16:00 24,9 C 53 % 1012,3 hPa 0,0 l/m 0,0 km/h W 14,6 C 24,9 C 0,0 km/h
14.06.2010 17:00 26,6 C 46 % 1012,3 hPa 0,0 l/m 1,3 km/h NO 14,0 C 26,6 C 0,7 km/h
14.06.2010 18:00 27,3 C 43 % 1012,1 hPa 0,0 l/m 0,0 km/h N 13,6 C 27,3 C 0,0 km/h
14.06.2010 19:00 21,4 C 55 % 1012,3 hPa 0,0 l/m 0,6 km/h NO 12,0 C 21,4 C 0,4 km/h
14.06.2010 20:00 19,3 C 63 % 1012,0 hPa 0,0 l/m 0,6 km/h O-NO 12,1 C 19,3 C 0,4 km/h
14.06.2010 21:00 15,0 C 77 % 1013,3 hPa 0,0 l/m 0,0 km/h N-NO 11,0 C 15,0 C 0,0 km/h
14.06.2010 22:00 13,2 C 84 % 1013,4 hPa 0,0 l/m 0,0 km/h NO 10,6 C 13,2 C 0,0 km/h
14.06.2010 23:00 13,6 C 86 % 1013,5 hPa 0,0 l/m 0,0 km/h NO 11,3 C 13,6 C 0,0 km/h
15.06.2010 00:00 12,8 C 85 % 1013,0 hPa 0,0 l/m 0,0 km/h NO 10,3 C 12,8 C 0,0 km/h
15.06.2010 01:00 13,3 C 87 % 1013,4 hPa 0,0 l/m 0,0 km/h W-SW 11,2 C 13,3 C 0,0 km/h
15.06.2010 02:00 12,6 C 88 % 1013,1 hPa 0,0 l/m 0,0 km/h SW 10,7 C 12,6 C 0,0 km/h
15.06.2010 03:00 12,4 C 90 % 1012,5 hPa 0,0 l/m 0,0 km/h S 10,8 C 12,4 C 0,0 km/h
15.06.2010 04:00 12,8 C 90 % 1012,5 hPa 0,0 l/m 0,0 km/h S-SW 11,2 C 12,8 C 0,0 km/h
15.06.2010 05:00 12,9 C 90 % 1012,8 hPa 0,0 l/m 0,0 km/h S 11,3 C 12,9 C 0,0 km/h
15.06.2010 06:00 13,4 C 91 % 1013,5 hPa 0,0 l/m 0,0 km/h SW 12,0 C 13,4 C 0,0 km/h
15.06.2010 07:00 13,8 C 91 % 1014,0 hPa 0,4 l/m 0,0 km/h W 12,4 C 13,8 C 0,0 km/h
15.06.2010 08:00 15,0 C 90 % 1014,4 hPa 0,0 l/m 0,0 km/h W-SW 13,4 C 15,0 C 0,0 km/h
15.06.2010 09:00 16,9 C 87 % 1014,4 hPa 0,0 l/m 3,2 km/h W-NW 14,7 C 16,9 C 1,8 km/h
15.06.2010 10:00 18,6 C 84 % 1014,6 hPa 0,4 l/m 1,3 km/h S-SW 15,8 C 18,6 C 0,7 km/h
15.06.2010 11:00 21,1 C 78 % 1014,4 hPa 0,0 l/m 0,0 km/h NO 17,1 C 21,1 C 0,0 km/h
15.06.2010 12:00 24,5 C 61 % 1013,9 hPa 0,0 l/m 0,0 km/h S-SO 16,5 C 24,5 C 0,0 km/h
15.06.2010 13:00 25,8 C 54 % 1013,3 hPa 0,0 l/m 2,6 km/h N-NO 15,8 C 25,8 C 1,4 km/h
15.06.2010 14:00 25,6 C 50 % 1013,4 hPa 0,0 l/m 2,6 km/h N-NO 14,4 C 25,6 C 1,4 km/h
15.06.2010 15:00 25,4 C 51 % 1013,3 hPa 0,0 l/m 5,2 km/h O-NO 14,5 C 25,4 C 2,9 km/h
15.06.2010 16:00 22,4 C 58 % 1013,2 hPa 0,0 l/m 0,0 km/h S-SO 13,7 C 22,4 C 0,0 km/h
15.06.2010 17:00 26,0 C 52 % 1013,1 hPa 0,0 l/m 5,2 km/h NO 15,4 C 26,0 C 2,9 km/h
15.06.2010 18:00 25,0 C 53 % 1012,5 hPa 0,0 l/m 0,0 km/h N 14,7 C 25,0 C 0,0 km/h
15.06.2010 19:00 21,3 C 62 % 1012,7 hPa 0,0 l/m 0,0 km/h N-NO 13,7 C 21,3 C 0,0 km/h
15.06.2010 20:00 20,9 C 64 % 1012,7 hPa 0,0 l/m 3,9 km/h N-NO 13,8 C 20,9 C 2,2 km/h
15.06.2010 21:00 19,9 C 66 % 1012,8 hPa 0,0 l/m 0,0 km/h NO 13,4 C 19,9 C 0,0 km/h
15.06.2010 22:00 19,6 C 68 % 1013,1 hPa 0,0 l/m 8,4 km/h O-NO 13,5 C 18,8 C 4,7 km/h
15.06.2010 23:00 19,6 C 67 % 1012,7 hPa 0,0 l/m 0,0 km/h N-NO 13,3 C 19,6 C 0,0 km/h
16.06.2010 00:00 19,3 C 67 % 1012,4 hPa 0,0 l/m 8,4 km/h N-NO 13,0 C 18,5 C 4,7 km/h
16.06.2010 01:00 19,0 C 67 % 1012,0 hPa 0,0 l/m 0,0 km/h N-NO 12,7 C 19,0 C 0,0 km/h
16.06.2010 02:00 18,8 C 67 % 1011,8 hPa 0,0 l/m 0,0 km/h N 12,5 C 18,8 C 0,0 km/h
16.06.2010 03:00 18,5 C 67 % 1011,3 hPa 0,0 l/m 6,5 km/h N-NO 12,3 C 18,5 C 3,6 km/h
16.06.2010 04:00 17,9 C 69 % 1010,9 hPa 0,0 l/m 0,0 km/h N 12,1 C 17,9 C 0,0 km/h
16.06.2010 05:00 17,3 C 69 % 1010,8 hPa 0,0 l/m 0,0 km/h N 11,6 C 17,3 C 0,0 km/h
16.06.2010 06:00 17,8 C 67 % 1010,0 hPa 0,0 l/m 0,0 km/h N 11,6 C 17,8 C 0,0 km/h
16.06.2010 07:00 18,1 C 67 % 1009,8 hPa 0,0 l/m 0,0 km/h O 11,9 C 18,1 C 0,0 km/h
16.06.2010 08:00 18,1 C 67 % 1010,1 hPa 0,0 l/m 1,9 km/h N-NO 11,9 C 18,1 C 1,1 km/h
16.06.2010 09:00 18,1 C 67 % 1010,3 hPa 0,0 l/m 0,0 km/h N 11,9 C 18,1 C 0,0 km/h
16.06.2010 10:00 19,1 C 64 % 1010,5 hPa 0,0 l/m 0,6 km/h O-NO 12,1 C 19,1 C 0,4 km/h
16.06.2010 11:00 20,4 C 62 % 1010,6 hPa 0,0 l/m 0,0 km/h O-NO 12,9 C 20,4 C 0,0 km/h
16.06.2010 12:00 19,9 C 61 % 1011,0 hPa 0,0 l/m 6,5 km/h NO 12,2 C 19,9 C 3,6 km/h
16.06.2010 13:00 18,6 C 64 % 1011,4 hPa 0,0 l/m 0,0 km/h N-NO 11,7 C 18,6 C 0,0 km/h
16.06.2010 14:00 18,0 C 69 % 1011,7 hPa 0,0 l/m 1,3 km/h N-NO 12,2 C 18,0 C 0,7 km/h
16.06.2010 15:00 15,9 C 83 % 1012,2 hPa 2,8 l/m 0,0 km/h N 13,0 C 15,9 C 0,0 km/h
16.06.2010 16:00 15,8 C 86 % 1012,0 hPa 1,4 l/m 0,0 km/h N 13,5 C 15,8 C 0,0 km/h
16.06.2010 17:00 15,9 C 84 % 1012,1 hPa 1,8 l/m 0,0 km/h NO 13,2 C 15,9 C 0,0 km/h
16.06.2010 18:00 15,5 C 87 % 1012,6 hPa 0,4 l/m 0,0 km/h N-NO 13,3 C 15,5 C 0,0 km/h
16.06.2010 19:00 14,4 C 88 % 1012,7 hPa 0,7 l/m 2,6 km/h N-NO 12,4 C 14,4 C 1,4 km/h
16.06.2010 20:00 14,1 C 89 % 1013,2 hPa 0,7 l/m 0,0 km/h N-NO 12,3 C 14,1 C 0,0 km/h
16.06.2010 21:00 13,9 C 91 % 1013,3 hPa 0,4 l/m 0,0 km/h NO 12,5 C 13,9 C 0,0 km/h
16.06.2010 22:00 13,8 C 91 % 1013,4 hPa 0,7 l/m 0,0 km/h NO 12,4 C 13,8 C 0,0 km/h
16.06.2010 23:00 13,9 C 91 % 1012,9 hPa 0,0 l/m 0,0 km/h O-SO 12,5 C 13,9 C 0,0 km/h
17.06.2010 00:00 13,8 C 92 % 1012,8 hPa 0,0 l/m 0,0 km/h O-SO 12,5 C 13,8 C 0,0 km/h
17.06.2010 01:00 13,7 C 92 % 1012,3 hPa 0,0 l/m 0,0 km/h SO 12,4 C 13,7 C 0,0 km/h
17.06.2010 02:00 13,4 C 92 % 1011,8 hPa 0,4 l/m 0,0 km/h SO 12,1 C 13,4 C 0,0 km/h
17.06.2010 03:00 13,5 C 92 % 1011,3 hPa 0,0 l/m 0,0 km/h O 12,2 C 13,5 C 0,0 km/h
17.06.2010 04:00 13,4 C 92 % 1010,8 hPa 0,0 l/m 0,0 km/h O-SO 12,1 C 13,4 C 0,0 km/h
17.06.2010 05:00 13,5 C 92 % 1010,9 hPa 0,0 l/m 0,0 km/h O-SO 12,2 C 13,5 C 0,0 km/h
17.06.2010 06:00 14,3 C 91 % 1011,2 hPa 0,0 l/m 0,0 km/h S-SO 12,8 C 14,3 C 0,0 km/h
17.06.2010 07:00 16,1 C 88 % 1011,3 hPa 0,0 l/m 0,0 km/h W-SW 14,1 C 16,1 C 0,0 km/h
17.06.2010 08:00 16,0 C 88 % 1011,9 hPa 0,0 l/m 0,0 km/h W 14,0 C 16,0 C 0,0 km/h
17.06.2010 09:00 15,5 C 89 % 1011,9 hPa 0,0 l/m 0,0 km/h W 13,7 C 15,5 C 0,0 km/h
17.06.2010 10:00 17,9 C 83 % 1012,1 hPa 0,0 l/m 0,0 km/h W-SW 15,0 C 17,9 C 0,0 km/h
17.06.2010 11:00 19,1 C 80 % 1012,0 hPa 0,0 l/m 0,0 km/h W 15,6 C 19,1 C 0,0 km/h
17.06.2010 12:00 23,4 C 66 % 1011,7 hPa 0,0 l/m 0,0 km/h NW 16,7 C 23,4 C 0,0 km/h
17.06.2010 13:00 19,9 C 71 % 1011,9 hPa 0,0 l/m 0,0 km/h N-NW 14,5 C 19,9 C 0,0 km/h
17.06.2010 14:00 19,4 C 73 % 1011,8 hPa 0,0 l/m 4,5 km/h N-NO 14,4 C 19,4 C 2,5 km/h
17.06.2010 15:00 20,7 C 68 % 1011,6 hPa 0,0 l/m 0,0 km/h N-NW 14,6 C 20,7 C 0,0 km/h
17.06.2010 16:00 19,4 C 72 % 1011,4 hPa 0,0 l/m 0,0 km/h NO 14,2 C 19,4 C 0,0 km/h
17.06.2010 17:00 19,3 C 72 % 1011,3 hPa 0,0 l/m 5,2 km/h NW 14,1 C 19,3 C 2,9 km/h
17.06.2010 18:00 19,3 C 72 % 1011,4 hPa 0,0 l/m 0,0 km/h N 14,1 C 19,3 C 0,0 km/h
17.06.2010 19:00 18,1 C 78 % 1011,2 hPa 0,0 l/m 0,0 km/h S 14,2 C 18,1 C 0,0 km/h
17.06.2010 20:00 16,8 C 83 % 1011,5 hPa 0,0 l/m 0,0 km/h S-SW 13,9 C 16,8 C 0,0 km/h
17.06.2010 21:00 15,9 C 87 % 1011,9 hPa 0,0 l/m 1,9 km/h W 13,7 C 15,9 C 1,1 km/h
17.06.2010 22:00 15,4 C 90 % 1012,3 hPa 0,4 l/m 0,0 km/h W 13,8 C 15,4 C 0,0 km/h
17.06.2010 23:00 15,1 C 91 % 1012,2 hPa 0,0 l/m 0,0 km/h W 13,6 C 15,1 C 0,0 km/h
18.06.2010 00:00 14,7 C 92 % 1011,9 hPa 0,0 l/m 0,0 km/h W 13,4 C 14,7 C 0,0 km/h
18.06.2010 01:00 14,5 C 92 % 1011,4 hPa 0,0 l/m 0,0 km/h W 13,2 C 14,5 C 0,0 km/h
18.06.2010 02:00 14,6 C 92 % 1011,5 hPa 0,0 l/m 0,0 km/h W 13,3 C 14,6 C 0,0 km/h
18.06.2010 03:00 14,1 C 92 % 1011,0 hPa 1,8 l/m 0,0 km/h W 12,8 C 14,1 C 0,0 km/h
18.06.2010 04:00 13,9 C 93 % 1010,9 hPa 1,8 l/m 0,0 km/h N 12,8 C 13,9 C 0,0 km/h
18.06.2010 05:00 13,9 C 94 % 1010,7 hPa 0,4 l/m 0,0 km/h N-NW 12,9 C 13,9 C 0,0 km/h
18.06.2010 06:00 13,9 C 94 % 1010,8 hPa 0,7 l/m 0,0 km/h W-NW 12,9 C 13,9 C 0,0 km/h
18.06.2010 07:00 13,9 C 94 % 1011,0 hPa 0,7 l/m 0,0 km/h W 12,9 C 13,9 C 0,0 km/h
18.06.2010 08:00 14,0 C 94 % 1011,3 hPa 0,4 l/m 0,0 km/h W-NW 13,0 C 14,0 C 0,0 km/h
18.06.2010 09:00 14,4 C 94 % 1011,6 hPa 1,1 l/m 0,0 km/h W-SW 13,4 C 14,4 C 0,0 km/h
18.06.2010 10:00 15,1 C 94 % 1011,9 hPa 0,7 l/m 0,0 km/h S-SW 14,1 C 15,1 C 0,0 km/h
18.06.2010 11:00 19,0 C 84 % 1011,6 hPa 0,0 l/m 0,0 km/h W 16,2 C 19,0 C 0,0 km/h
18.06.2010 12:00 18,9 C 81 % 1011,6 hPa 0,0 l/m 1,3 km/h W 15,6 C 18,9 C 0,7 km/h
18.06.2010 13:00 19,4 C 80 % 1011,4 hPa 0,0 l/m 0,0 km/h S 15,9 C 19,4 C 0,0 km/h
18.06.2010 14:00 23,3 C 68 % 1011,1 hPa 0,0 l/m 7,8 km/h S-SW 17,1 C 22,9 C 4,3 km/h
18.06.2010 15:00 27,9 C 55 % 1010,8 hPa 0,0 l/m 5,8 km/h S 18,0 C 27,9 C 3,2 km/h
18.06.2010 16:00 29,8 C 48 % 1010,2 hPa 0,0 l/m 3,2 km/h W 17,6 C 29,8 C 1,8 km/h
18.06.2010 17:00 25,5 C 54 % 1010,1 hPa 0,0 l/m 1,3 km/h W-SW 15,5 C 25,5 C 0,7 km/h
18.06.2010 18:00 24,9 C 54 % 1009,9 hPa 0,0 l/m 1,3 km/h W-SW 14,9 C 24,9 C 0,7 km/h
18.06.2010 19:00 18,8 C 71 % 1009,3 hPa 0,0 l/m 2,6 km/h W-SW 13,4 C 18,8 C 1,4 km/h
18.06.2010 20:00 18,6 C 74 % 1009,1 hPa 0,0 l/m 7,1 km/h W-NW 13,9 C 18,3 C 4,0 km/h
18.06.2010 21:00 14,9 C 81 % 1009,2 hPa 0,0 l/m 0,0 km/h SO 11,7 C 14,9 C 0,0 km/h
18.06.2010 22:00 14,3 C 87 % 1009,0 hPa 0,0 l/m 0,0 km/h N-NO 12,2 C 14,3 C 0,0 km/h
18.06.2010 23:00 14,2 C 90 % 1009,4 hPa 1,4 l/m 0,0 km/h O-SO 12,6 C 14,2 C 0,0 km/h
19.06.2010 00:00 13,8 C 90 % 1009,3 hPa 0,0 l/m 0,0 km/h O-SO 12,2 C 13,8 C 0,0 km/h
19.06.2010 01:00 13,4 C 91 % 1009,1 hPa 0,0 l/m 0,0 km/h NO 12,0 C 13,4 C 0,0 km/h
19.06.2010 02:00 11,9 C 91 % 1008,6 hPa 0,0 l/m 0,0 km/h O-NO 10,5 C 11,9 C 0,0 km/h
19.06.2010 03:00 11,0 C 92 % 1008,1 hPa 0,0 l/m 0,0 km/h NO 9,8 C 11,0 C 0,0 km/h
19.06.2010 04:00 10,9 C 93 % 1007,6 hPa 0,0 l/m 0,0 km/h NO 9,8 C 10,9 C 0,0 km/h
19.06.2010 05:00 11,1 C 93 % 1007,4 hPa 0,0 l/m 0,0 km/h N-NO 10,0 C 11,1 C 0,0 km/h
19.06.2010 06:00 11,6 C 93 % 1007,4 hPa 0,0 l/m 0,0 km/h N-NW 10,5 C 11,6 C 0,0 km/h
19.06.2010 07:00 12,1 C 93 % 1007,1 hPa 0,4 l/m 0,0 km/h NW 11,0 C 12,1 C 0,0 km/h
19.06.2010 08:00 14,3 C 91 % 1006,7 hPa 0,4 l/m 0,0 km/h N-NW 12,8 C 14,3 C 0,0 km/h
19.06.2010 09:00 11,7 C 88 % 1006,6 hPa 0,0 l/m 0,0 km/h O-NO 9,8 C 11,7 C 0,0 km/h
19.06.2010 10:00 11,6 C 90 % 1007,1 hPa 1,8 l/m 0,0 km/h N-NW 10,0 C 11,6 C 0,0 km/h
19.06.2010 11:00 12,4 C 88 % 1007,7 hPa 1,1 l/m 0,0 km/h W-NW 10,5 C 12,4 C 0,0 km/h
19.06.2010 12:00 12,5 C 87 % 1007,8 hPa 1,1 l/m 0,0 km/h N-NW 10,4 C 12,5 C 0,0 km/h
19.06.2010 13:00 13,5 C 84 % 1007,5 hPa 0,4 l/m 4,5 km/h W 10,8 C 13,5 C 2,5 km/h
19.06.2010 14:00 19,2 C 65 % 1007,2 hPa 0,0 l/m 0,0 km/h O-SO 12,5 C 19,2 C 0,0 km/h
19.06.2010 15:00 21,2 C 52 % 1006,6 hPa 0,0 l/m 0,0 km/h N-NO 10,9 C 21,2 C 0,0 km/h
19.06.2010 16:00 22,8 C 43 % 1006,5 hPa 0,0 l/m 2,6 km/h NW 9,6 C 22,8 C 1,4 km/h
19.06.2010 17:00 17,6 C 51 % 1006,4 hPa 0,0 l/m 2,6 km/h NO 7,3 C 17,6 C 1,4 km/h
19.06.2010 18:00 13,8 C 67 % 1006,7 hPa 0,0 l/m 0,0 km/h S-SO 7,8 C 13,8 C 0,0 km/h
19.06.2010 19:00 15,3 C 68 % 1006,7 hPa 0,0 l/m 0,0 km/h S-SO 9,4 C 15,3 C 0,0 km/h
19.06.2010 20:00 12,1 C 79 % 1006,9 hPa 0,0 l/m 0,0 km/h O-SO 8,6 C 12,1 C 0,0 km/h
19.06.2010 21:00 10,2 C 85 % 1007,3 hPa 0,0 l/m 0,0 km/h SO 7,8 C 10,2 C 0,0 km/h
19.06.2010 22:00 7,9 C 88 % 1007,4 hPa 0,0 l/m 0,0 km/h S-SO 6,0 C 7,9 C 0,0 km/h
19.06.2010 23:00 7,6 C 90 % 1007,6 hPa 0,0 l/m 0,0 km/h SO 6,1 C 7,6 C 0,0 km/h
20.06.2010 00:00 7,4 C 91 % 1008,0 hPa 0,0 l/m 0,0 km/h SO 6,0 C 7,4 C 0,0 km/h
20.06.2010 01:00 6,7 C 92 % 1007,7 hPa 0,0 l/m 0,0 km/h SO 5,5 C 6,7 C 0,0 km/h
20.06.2010 02:00 6,2 C 92 % 1007,9 hPa 0,0 l/m 0,0 km/h SO 5,0 C 6,2 C 0,0 km/h
20.06.2010 03:00 6,8 C 92 % 1008,1 hPa 0,0 l/m 0,0 km/h SO 5,6 C 6,8 C 0,0 km/h
20.06.2010 04:00 7,5 C 92 % 1008,2 hPa 0,0 l/m 0,0 km/h SO 6,3 C 7,5 C 0,0 km/h
20.06.2010 05:00 7,9 C 93 % 1008,3 hPa 0,0 l/m 0,0 km/h SO 6,8 C 7,9 C 0,0 km/h
20.06.2010 06:00 8,6 C 93 % 1008,8 hPa 0,0 l/m 0,0 km/h SO 7,5 C 8,6 C 0,0 km/h
20.06.2010 07:00 10,7 C 93 % 1009,4 hPa 0,0 l/m 0,0 km/h N-NO 9,6 C 10,7 C 0,0 km/h
20.06.2010 08:00 11,1 C 86 % 1009,7 hPa 0,0 l/m 0,0 km/h N 8,8 C 11,1 C 0,0 km/h
20.06.2010 09:00 14,3 C 71 % 1009,9 hPa 0,0 l/m 1,3 km/h N-NO 9,1 C 14,3 C 0,7 km/h
20.06.2010 10:00 16,1 C 61 % 1010,3 hPa 0,0 l/m 0,0 km/h N-NO 8,6 C 16,1 C 0,0 km/h
20.06.2010 11:00 15,6 C 59 % 1010,4 hPa 0,0 l/m 1,3 km/h NO 7,6 C 15,6 C 0,7 km/h
20.06.2010 12:00 17,4 C 54 % 1010,8 hPa 0,0 l/m 12,3 km/h SW 8,0 C 14,9 C 6,8 km/h
20.06.2010 13:00 18,2 C 48 % 1010,8 hPa 0,0 l/m 0,0 km/h N-NW 7,0 C 18,2 C 0,0 km/h
20.06.2010 14:00 17,6 C 50 % 1010,9 hPa 0,0 l/m 2,6 km/h N-NO 7,1 C 17,6 C 1,4 km/h
20.06.2010 15:00 19,9 C 46 % 1011,2 hPa 0,0 l/m 21,4 km/h N 7,9 C 15,8 C 11,9 km/h
20.06.2010 16:00 17,5 C 51 % 1011,5 hPa 0,0 l/m 7,1 km/h N 7,3 C 17,2 C 4,0 km/h
20.06.2010 17:00 17,6 C 51 % 1011,5 hPa 0,0 l/m 22,0 km/h N-NO 7,3 C 12,7 C 12,2 km/h
20.06.2010 18:00 17,1 C 48 % 1012,0 hPa 0,0 l/m 10,4 km/h N 6,0 C 15,3 C 5,8 km/h
20.06.2010 19:00 17,3 C 49 % 1012,5 hPa 0,0 l/m 7,8 km/h N 6,5 C 16,6 C 4,3 km/h
20.06.2010 20:00 15,3 C 57 % 1013,1 hPa 0,0 l/m 0,0 km/h NO 6,8 C 15,3 C 0,0 km/h
20.06.2010 21:00 11,9 C 68 % 1014,0 hPa 0,0 l/m 0,0 km/h SO 6,2 C 11,9 C 0,0 km/h
20.06.2010 22:00 9,9 C 75 % 1014,7 hPa 0,0 l/m 0,0 km/h S-SO 5,7 C 9,9 C 0,0 km/h
20.06.2010 23:00 7,2 C 82 % 1015,1 hPa 0,0 l/m 0,0 km/h N-NO 4,3 C 7,2 C 0,0 km/h
Min-Datum _ 20.06.10 14.06.10 19.06.10 - 14.06.10 - 20.06.10 20.06.10 14.06.10
_ Min-Zeit 02:53 18:53 17:53 - 00:53 - 23:53 02:53 00:53
Minimum _ 6,2 C 43 % 1006,4 hPa - 0,0 km/h - 4,3 C 6,2 C 0,0 km/h
Max-Datum _ 18.06.10 14.06.10 20.06.10 16.06.10 20.06.10 - 18.06.10 18.06.10 20.06.10
_ Max-Zeit 16:53 07:53 23:53 15:53 17:53 - 15:53 16:53 17:53
Maximum _ 29,8 C 94 % 1015,1 hPa 2,8 l/m 22,0 km/h
N-NO
- 18,0 C 29,8 C 12,2 km/h
N-NO
Durchschnitt _ 16,6 C 76 % 1011,0 hPa #24,2 l/m 1,3 km/h N-NO 11,9 C 16,5 C 0,7 km/h